Time;durP1;ratioP1;P1;durP2;ratioP2;P2;SDS_P1;SDS_P2;PMS_P1;PMS_P2;Temp;Humidity;BMP_temperature;BMP_pressure;BME280_temperature;BME280_humidity;BME280_pressure;Samples;Min_cycle;Max_cycle;Signal;HPM_P1;HPM_P2
2022/01/02 00:01:36;;;;;;;4.23;2.53;;;;;;;5.71;100.00;99312.38;5011432;28;20563;-51
2022/01/02 00:04:04;;;;;;;8.33;2.70;;;;;;;5.71;100.00;99308.97;5009016;28;20197;-56
2022/01/02 00:06:34;;;;;;;4.27;2.80;;;;;;;5.76;100.00;99312.09;5010347;28;20775;-54
2022/01/02 00:09:04;;;;;;;3.87;2.40;;;;;;;5.69;100.00;99306.47;5011612;28;20539;-51
2022/01/02 00:11:31;;;;;;;4.37;2.70;;;;;;;5.74;100.00;99317.34;5010079;28;20212;-54
2022/01/02 00:14:06;;;;;;;5.87;2.67;;;;;;;5.63;100.00;99321.63;5011483;28;20677;-53
2022/01/02 00:16:34;;;;;;;7.60;3.20;;;;;;;5.59;100.00;99315.78;5011724;28;20223;-54
2022/01/02 00:19:08;;;;;;;5.80;2.87;;;;;;;5.49;100.00;99320.75;5011847;28;20189;-52
2022/01/02 00:21:44;;;;;;;6.27;2.43;;;;;;;5.47;100.00;99317.44;5010352;28;20185;-52
2022/01/02 00:24:14;;;;;;;7.00;2.30;;;;;;;5.46;100.00;99311.41;5011773;28;20732;-51
2022/01/02 00:26:43;;;;;;;5.90;2.50;;;;;;;5.43;100.00;99319.38;5011367;28;20687;-53
2022/01/02 00:29:12;;;;;;;6.27;2.80;;;;;;;5.39;100.00;99309.34;5009840;28;20195;-51
2022/01/02 00:31:42;;;;;;;3.60;2.37;;;;;;;5.47;100.00;99307.91;5018072;28;20277;-51
2022/01/02 00:34:10;;;;;;;5.03;2.00;;;;;;;5.42;100.00;99298.78;5030894;28;20212;-50
2022/01/02 00:36:38;;;;;;;3.83;2.40;;;;;;;5.40;100.00;99291.09;5022663;28;20228;-51
2022/01/02 00:39:07;;;;;;;4.37;2.43;;;;;;;5.49;100.00;99283.66;5009542;28;20641;-54
2022/01/02 00:41:42;;;;;;;3.23;1.73;;;;;;;5.44;100.00;99284.78;5015766;28;20194;-51
2022/01/02 00:44:18;;;;;;;3.80;2.20;;;;;;;5.47;100.00;99276.81;5015901;28;20247;-52
2022/01/02 00:46:53;;;;;;;3.80;1.93;;;;;;;5.41;100.00;99273.81;5014691;28;20765;-53
2022/01/02 00:49:25;;;;;;;5.70;2.00;;;;;;;5.31;100.00;99274.44;5018043;28;20200;-51
2022/01/02 00:52:03;;;;;;;3.27;2.00;;;;;;;5.27;100.00;99261.81;5019002;28;20188;-52
2022/01/02 00:54:33;;;;;;;3.40;2.00;;;;;;;5.24;100.00;99259.41;5021342;28;20223;-54
2022/01/02 00:57:05;;;;;;;3.47;2.10;;;;;;;5.31;100.00;99256.31;5020934;28;20755;-54
2022/01/02 00:59:44;;;;;;;3.40;2.10;;;;;;;5.43;100.00;99231.34;5012454;28;20728;-53
2022/01/02 01:02:16;;;;;;;4.00;1.63;;;;;;;5.46;100.00;99215.63;5016356;28;20196;-50
2022/01/02 01:04:44;;;;;;;5.17;1.67;;;;;;;5.34;100.00;99223.38;5018167;28;20196;-52
2022/01/02 01:07:14;;;;;;;4.17;1.47;;;;;;;5.28;100.00;99224.63;5015317;28;20215;-53
2022/01/02 01:09:41;;;;;;;3.93;1.13;;;;;;;5.22;100.00;99218.09;5017803;28;20705;-51
2022/01/02 01:12:10;;;;;;;1.93;1.37;;;;;;;5.28;100.00;99215.09;5015152;28;20601;-54
2022/01/02 01:14:37;;;;;;;1.67;1.37;;;;;;;5.37;100.00;99213.63;5012617;28;20205;-54
2022/01/02 01:17:04;;;;;;;4.43;1.63;;;;;;;5.30;100.00;99213.22;5010816;28;20224;-53
2022/01/02 01:19:31;;;;;;;3.10;1.40;;;;;;;5.17;100.00;99212.41;5014640;28;20279;-58
2022/01/02 01:21:58;;;;;;;2.63;1.40;;;;;;;5.22;100.00;99217.28;5008964;28;20250;-52
2022/01/02 01:24:29;;;;;;;3.55;1.45;;;;;;;5.07;100.00;99216.50;5016400;28;20464;-56
2022/01/02 01:26:58;;;;;;;3.67;1.40;;;;;;;5.02;100.00;99211.66;5012703;28;20399;-53
2022/01/02 01:29:25;;;;;;;2.60;1.60;;;;;;;5.14;100.00;99212.59;5011384;28;20192;-54
2022/01/02 01:31:52;;;;;;;4.57;1.20;;;;;;;5.15;100.00;99212.50;5015592;28;20185;-52
2022/01/02 01:34:19;;;;;;;1.63;1.30;;;;;;;5.01;100.00;99215.19;5020092;28;20224;-56
2022/01/02 01:36:46;;;;;;;3.33;1.10;;;;;;;4.97;100.00;99221.47;5015723;28;20216;-53
2022/01/02 01:39:13;;;;;;;1.87;1.13;;;;;;;4.91;100.00;99230.44;5016615;28;20211;-55
2022/01/02 01:41:41;;;;;;;1.77;1.20;;;;;;;4.86;100.00;99233.34;5019384;28;20197;-52
2022/01/02 01:44:27;;;;;;;4.20;1.67;;;;;;;4.85;100.00;99215.31;5023248;28;20192;-55
2022/01/02 01:46:56;;;;;;;3.53;1.20;;;;;;;4.88;100.00;99215.13;5012267;28;20244;-55
2022/01/02 01:49:27;;;;;;;1.43;0.97;;;;;;;4.86;100.00;99217.81;5012233;28;20232;-52
2022/01/02 01:51:56;;;;;;;5.73;1.20;;;;;;;4.87;100.00;99227.25;5012265;28;20208;-54
2022/01/02 01:54:25;;;;;;;5.67;1.63;;;;;;;4.84;100.00;99222.28;5013259;28;20189;-55
2022/01/02 01:56:56;;;;;;;2.20;1.50;;;;;;;4.76;100.00;99227.09;5013210;28;20224;-55
2022/01/02 01:59:26;;;;;;;7.93;2.53;;;;;;;4.75;100.00;99230.63;5012115;28;20673;-52
2022/01/02 02:01:55;;;;;;;6.00;3.20;;;;;;;4.78;100.00;99232.16;5010893;28;20255;-52
2022/01/02 02:04:23;;;;;;;7.30;3.40;;;;;;;4.76;100.00;99224.53;5013397;28;20688;-54
2022/01/02 02:06:52;;;;;;;7.10;2.97;;;;;;;4.59;100.00;99228.19;5015093;28;20213;-54
2022/01/02 02:09:21;;;;;;;5.63;2.83;;;;;;;4.46;100.00;99227.31;5014170;28;20708;-52
2022/01/02 02:11:50;;;;;;;10.73;4.10;;;;;;;4.38;100.00;99220.03;5012798;28;20694;-52
2022/01/02 02:14:19;;;;;;;5.13;3.40;;;;;;;4.31;100.00;99216.16;5012749;28;20662;-52
2022/01/02 02:16:47;;;;;;;6.07;3.13;;;;;;;4.25;100.00;99214.81;5010958;28;20227;-56
2022/01/02 02:19:15;;;;;;;5.13;2.70;;;;;;;4.24;100.00;99206.22;5012383;28;20201;-56
2022/01/02 02:21:44;;;;;;;4.90;2.77;;;;;;;4.48;100.00;99200.41;5011662;28;20201;-54
2022/01/02 02:24:11;;;;;;;10.63;2.80;;;;;;;4.37;100.00;99200.28;5008850;28;20190;-55
2022/01/02 02:26:39;;;;;;;5.73;2.90;;;;;;;4.33;100.00;99202.25;5011457;28;20213;-55
2022/01/02 02:29:06;;;;;;;4.53;2.87;;;;;;;4.36;100.00;99196.03;5016595;28;20237;-54
2022/01/02 02:31:34;;;;;;;4.77;2.67;;;;;;;4.35;100.00;99197.81;5011597;28;20210;-53
2022/01/02 02:34:02;;;;;;;8.50;2.77;;;;;;;4.32;100.00;99213.50;5012410;28;20715;-54
2022/01/02 02:36:29;;;;;;;5.13;2.33;;;;;;;4.34;100.00;99213.38;5011552;28;20208;-55
2022/01/02 02:38:58;;;;;;;6.13;2.50;;;;;;;4.31;100.00;99211.00;5012048;28;20202;-52
2022/01/02 02:41:30;;;;;;;6.57;2.30;;;;;;;4.37;100.00;99197.69;5011845;28;20196;-55
2022/01/02 02:44:04;;;;;;;4.10;2.20;;;;;;;4.40;100.00;99197.50;5003642;28;20189;-56
2022/01/02 02:49:16;;;;;;;3.83;2.30;;;;;;;4.33;100.00;99196.22;5030967;28;20238;-56
2022/01/02 02:51:50;;;;;;;4.00;2.20;;;;;;;4.29;100.00;99190.44;5032446;28;20200;-54
2022/01/02 02:54:25;;;;;;;3.83;2.23;;;;;;;4.17;100.00;99183.44;5012858;28;20197;-58
2022/01/02 02:56:58;;;;;;;6.40;2.20;;;;;;;4.20;100.00;99178.94;5011345;28;20217;-55
2022/01/02 02:59:30;;;;;;;3.83;2.17;;;;;;;4.18;100.00;99167.88;5011784;28;20231;-57
2022/01/02 03:01:58;;;;;;;4.90;2.13;;;;;;;4.15;100.00;99152.56;5010977;28;20781;-54
2022/01/02 03:04:27;;;;;;;6.00;2.60;;;;;;;4.19;100.00;99154.03;5011414;28;20193;-55
2022/01/02 03:06:55;;;;;;;5.07;2.10;;;;;;;4.27;100.00;99146.56;5010907;28;20767;-57
2022/01/02 03:09:37;;;;;;;4.47;1.90;;;;;;;4.20;100.00;99152.25;5009804;28;20207;-56
2022/01/02 03:12:05;;;;;;;2.30;1.73;;;;;;;4.29;100.00;99142.13;5005923;28;20884;-52
2022/01/02 03:14:32;;;;;;;3.73;1.57;;;;;;;4.32;100.00;99135.13;5010874;28;20615;-56
2022/01/02 03:17:00;;;;;;;3.37;1.00;;;;;;;4.35;100.00;99122.84;5011174;28;20221;-55
2022/01/02 03:19:27;;;;;;;2.33;1.53;;;;;;;4.57;100.00;99122.28;5010781;28;20188;-54
2022/01/02 03:21:55;;;;;;;3.17;1.30;;;;;;;4.53;100.00;99120.81;5011394;28;20186;-56
2022/01/02 03:24:23;;;;;;;2.73;1.10;;;;;;;4.51;100.00;99122.66;5012629;28;20655;-53
2022/01/02 03:26:50;;;;;;;2.00;1.17;;;;;;;4.50;100.00;99117.63;5005978;28;20231;-56
2022/01/02 03:29:17;;;;;;;2.00;0.97;;;;;;;4.50;100.00;99115.03;5011212;28;20204;-56
2022/01/02 03:31:44;;;;;;;2.93;1.03;;;;;;;4.59;100.00;99111.84;5009814;28;20192;-55
2022/01/02 03:34:11;;;;;;;3.83;0.90;;;;;;;4.63;100.00;99109.88;5015174;28;20230;-52
2022/01/02 03:36:39;;;;;;;3.83;0.73;;;;;;;4.65;100.00;99113.19;5010196;28;20239;-54
2022/01/02 03:39:05;;;;;;;3.97;0.90;;;;;;;4.61;100.00;99109.16;5010874;28;20284;-55
2022/01/02 03:41:34;;;;;;;2.43;0.83;;;;;;;4.61;100.00;99109.16;5016194;28;20189;-56
2022/01/02 03:44:01;;;;;;;3.33;1.10;;;;;;;4.58;100.00;99108.41;5027681;28;20192;-53
2022/01/02 03:46:28;;;;;;;2.83;1.00;;;;;;;4.62;100.00;99101.31;5030864;28;20292;-53
2022/01/02 03:48:55;;;;;;;1.90;0.80;;;;;;;4.64;100.00;99101.19;5017605;28;20192;-54
2022/01/02 03:51:22;;;;;;;3.67;1.20;;;;;;;4.65;100.00;99108.00;5009765;28;20251;-54
2022/01/02 03:53:49;;;;;;;2.97;0.90;;;;;;;4.70;100.00;99105.97;5012207;28;20185;-53
2022/01/02 03:56:16;;;;;;;1.93;1.00;;;;;;;4.69;100.00;99104.28;5009312;28;20260;-54
2022/01/02 03:58:44;;;;;;;1.63;0.97;;;;;;;4.71;100.00;99094.69;5010949;28;20189;-56
2022/01/02 04:01:11;;;;;;;2.73;0.90;;;;;;;4.75;100.00;99093.56;5010247;28;20195;-55
2022/01/02 04:03:39;;;;;;;1.20;0.73;;;;;;;4.72;100.00;99081.66;4999445;28;20208;-57
2022/01/02 04:06:06;;;;;;;2.93;1.30;;;;;;;4.70;100.00;99078.34;5010605;28;20196;-56
2022/01/02 04:08:32;;;;;;;2.67;1.03;;;;;;;4.70;100.00;99072.34;5007981;28;20200;-54
2022/01/02 04:10:59;;;;;;;1.93;1.20;;;;;;;4.67;100.00;99051.84;5009076;28;20197;-53
2022/01/02 04:13:26;;;;;;;3.20;1.30;;;;;;;4.83;100.00;99055.06;5010515;28;20270;-55
2022/01/02 04:15:54;;;;;;;2.10;1.03;;;;;;;4.88;100.00;99053.00;5010302;28;20311;-55
2022/01/02 04:18:21;;;;;;;2.10;1.07;;;;;;;4.82;100.00;99045.66;5011912;28;20223;-53
2022/01/02 04:20:50;;;;;;;2.17;0.80;;;;;;;4.79;100.00;99053.63;5020946;28;20195;-55
2022/01/02 04:23:19;;;;;;;2.67;1.00;;;;;;;4.80;100.00;99060.44;5029726;28;20192;-54
2022/01/02 04:25:45;;;;;;;1.00;0.90;;;;;;;4.82;100.00;99066.34;5029853;28;20275;-52
2022/01/02 04:28:12;;;;;;;2.23;1.10;;;;;;;4.84;100.00;99048.13;5024453;28;20224;-54
2022/01/02 04:30:39;;;;;;;2.80;1.57;;;;;;;4.84;100.00;99051.56;5009564;28;20573;-55
2022/01/02 04:33:08;;;;;;;2.07;1.30;;;;;;;4.82;100.00;99057.75;5029048;28;20330;-53
2022/01/02 04:35:35;;;;;;;3.17;1.50;;;;;;;4.80;100.00;99060.44;5031028;28;20685;-55
2022/01/02 04:38:05;;;;;;;2.83;1.30;;;;;;;4.75;100.00;99056.53;5031291;28;20206;-56
2022/01/02 04:40:32;;;;;;;1.80;1.00;;;;;;;4.75;100.00;99053.94;5010410;28;20192;-54
2022/01/02 04:42:58;;;;;;;2.73;1.30;;;;;;;4.77;100.00;99046.91;5010265;28;20211;-55
2022/01/02 04:45:26;;;;;;;3.57;1.10;;;;;;;4.80;100.00;99039.75;5010413;28;20189;-52
2022/01/02 04:47:54;;;;;;;3.80;1.37;;;;;;;4.84;100.00;99036.03;5009744;28;20208;-51
2022/01/02 04:50:23;;;;;;;4.30;1.40;;;;;;;4.85;100.00;99031.66;5009699;28;20226;-52
2022/01/02 04:52:50;;;;;;;3.80;1.77;;;;;;;4.85;100.00;99027.34;5009867;28;20204;-54
2022/01/02 04:55:18;;;;;;;2.47;1.50;;;;;;;4.83;100.00;99025.78;5009640;28;20254;-53
2022/01/02 04:57:45;;;;;;;4.10;1.30;;;;;;;4.82;100.00;99021.53;5009975;28;20586;-53
2022/01/02 05:00:13;;;;;;;2.37;1.47;;;;;;;4.83;100.00;99020.59;5009659;28;20196;-52
2022/01/02 05:02:40;;;;;;;2.97;0.97;;;;;;;4.89;100.00;99009.84;5009627;28;20207;-52
2022/01/02 05:05:09;;;;;;;2.47;1.20;;;;;;;4.88;100.00;99011.63;5010371;28;20198;-54
2022/01/02 05:07:37;;;;;;;5.00;1.40;;;;;;;4.92;100.00;99001.06;5010020;28;20721;-52
2022/01/02 05:10:06;;;;;;;4.83;0.93;;;;;;;4.96;100.00;98999.91;5006327;28;20283;-55
2022/01/02 05:12:34;;;;;;;1.73;0.90;;;;;;;4.94;100.00;98994.81;5006532;28;20192;-54
2022/01/02 05:15:00;;;;;;;1.50;0.80;;;;;;;4.99;100.00;98986.78;5011535;28;20246;-55
2022/01/02 05:17:27;;;;;;;3.40;1.00;;;;;;;5.04;100.00;98989.88;5012930;28;20228;-52
2022/01/02 05:19:54;;;;;;;1.67;0.90;;;;;;;5.03;100.00;98990.78;5014098;28;20259;-55
2022/01/02 05:22:21;;;;;;;2.87;1.00;;;;;;;5.08;100.00;99009.41;5013557;28;20292;-52
2022/01/02 05:24:50;;;;;;;2.83;1.30;;;;;;;5.04;100.00;99013.16;5013239;28;20200;-56
2022/01/02 05:27:17;;;;;;;4.37;1.73;;;;;;;5.07;100.00;99023.28;5013818;28;20573;-52
2022/01/02 05:29:44;;;;;;;3.80;1.70;;;;;;;5.08;100.00;99030.13;5012920;28;20196;-53
2022/01/02 05:32:11;;;;;;;3.87;2.50;;;;;;;5.04;100.00;99031.25;5023991;28;20265;-56
2022/01/02 05:34:38;;;;;;;5.23;3.30;;;;;;;5.10;100.00;99030.00;5028086;28;20192;-56
2022/01/02 05:37:07;;;;;;;6.53;3.07;;;;;;;5.02;100.00;99039.13;5020009;28;20216;-52
2022/01/02 05:39:36;;;;;;;7.30;3.43;;;;;;;4.97;100.00;99036.00;5024771;28;20270;-56
2022/01/02 05:42:05;;;;;;;5.20;3.30;;;;;;;4.90;100.00;99029.59;5032946;28;20203;-54
2022/01/02 05:44:32;;;;;;;4.87;3.13;;;;;;;4.82;100.00;99022.38;5033874;28;20257;-56
2022/01/02 05:46:59;;;;;;;4.57;3.13;;;;;;;4.78;100.00;99012.31;5032541;28;20208;-54
2022/01/02 05:49:26;;;;;;;7.33;3.87;;;;;;;4.73;100.00;99010.06;5032955;28;20234;-52
2022/01/02 05:51:53;;;;;;;6.50;4.00;;;;;;;4.70;100.00;99008.53;5032155;28;20192;-56
2022/01/02 05:54:21;;;;;;;5.67;3.53;;;;;;;4.72;100.00;99003.25;5032624;28;20196;-55
2022/01/02 05:56:47;;;;;;;5.67;3.40;;;;;;;4.68;100.00;99010.38;5032343;28;20559;-55
2022/01/02 05:59:16;;;;;;;4.80;3.00;;;;;;;4.75;100.00;99013.38;5032768;28;20192;-54
2022/01/02 06:01:43;;;;;;;19.23;7.47;;;;;;;4.72;100.00;99006.66;5031575;28;20198;-56
2022/01/02 06:04:10;;;;;;;9.60;4.50;;;;;;;4.69;100.00;99009.47;5032774;28;20657;-56
2022/01/02 06:06:37;;;;;;;64.63;29.27;;;;;;;4.66;100.00;99001.06;5032707;28;20212;-55
2022/01/02 06:09:05;;;;;;;43.33;21.87;;;;;;;4.65;100.00;98997.66;5031648;28;20206;-55
2022/01/02 06:11:32;;;;;;;18.43;9.70;;;;;;;4.65;100.00;98983.91;5012185;28;20202;-53
2022/01/02 06:13:59;;;;;;;7.43;3.60;;;;;;;4.64;100.00;98992.59;5012493;28;20250;-56
2022/01/02 06:16:28;;;;;;;4.37;2.30;;;;;;;4.57;100.00;98995.59;5012011;28;20224;-54
2022/01/02 06:18:57;;;;;;;4.67;2.90;;;;;;;4.54;100.00;99000.97;5014013;28;20181;-56
2022/01/02 06:21:24;;;;;;;4.67;2.23;;;;;;;4.54;100.00;99000.16;5012020;28;20544;-53
2022/01/02 06:23:51;;;;;;;7.50;2.57;;;;;;;4.57;100.00;99005.13;5011901;28;20247;-56
2022/01/02 06:26:18;;;;;;;4.97;3.38;;;;;;;4.57;100.00;99003.34;5010774;28;21018;-53
2022/01/02 06:28:45;;;;;;;4.60;3.40;;;;;;;4.58;100.00;98997.25;5012547;28;20200;-53
2022/01/02 06:31:13;;;;;;;7.63;3.80;;;;;;;4.61;100.00;98998.81;5014798;28;20254;-52
2022/01/02 06:33:41;;;;;;;6.10;3.10;;;;;;;4.61;100.00;98996.22;5030215;28;20188;-54
2022/01/02 06:36:08;;;;;;;6.20;3.40;;;;;;;4.57;100.00;98992.19;5031850;28;20735;-55
2022/01/02 06:38:35;;;;;;;4.60;3.63;;;;;;;4.62;100.00;98991.84;5031639;28;20191;-55
2022/01/02 06:41:02;;;;;;;5.73;3.87;;;;;;;4.55;100.00;98978.53;5031424;28;20204;-56
2022/01/02 06:43:32;;;;;;;3.80;2.67;;;;;;;4.55;100.00;98966.41;5031810;28;20199;-57
2022/01/02 06:45:59;;;;;;;7.67;5.23;;;;;;;4.55;100.00;98963.84;5031127;28;20203;-57
2022/01/02 06:48:26;;;;;;;10.37;6.83;;;;;;;4.50;100.00;98954.75;5033096;28;20662;-57
2022/01/02 06:50:54;;;;;;;6.07;4.07;;;;;;;4.46;100.00;98953.31;5031528;28;20211;-57
2022/01/02 06:53:21;;;;;;;5.37;3.60;;;;;;;4.46;100.00;98953.31;5031207;28;20192;-57
2022/01/02 06:55:48;;;;;;;7.87;2.70;;;;;;;4.47;100.00;98947.19;5022844;28;20190;-56
2022/01/02 06:58:15;;;;;;;3.67;1.80;;;;;;;4.42;100.00;98943.16;5017499;28;20651;-57
2022/01/02 07:00:42;;;;;;;5.50;3.20;;;;;;;4.42;100.00;98944.91;5011192;28;20254;-56
2022/01/02 07:03:09;;;;;;;8.00;4.83;;;;;;;4.43;100.00;98959.50;5011320;28;20251;-57
2022/01/02 07:05:37;;;;;;;16.13;7.90;;;;;;;4.47;100.00;98960.13;5013872;28;20702;-55
2022/01/02 07:08:06;;;;;;;10.63;6.53;;;;;;;4.48;100.00;98965.19;5021494;28;20212;-57
2022/01/02 07:10:34;;;;;;;8.90;6.47;;;;;;;4.48;100.00;98978.09;5015355;28;20316;-56
2022/01/02 07:13:01;;;;;;;10.10;6.57;;;;;;;4.48;100.00;98982.47;5017539;28;20669;-56
2022/01/02 07:15:28;;;;;;;6.87;5.30;;;;;;;4.46;100.00;98981.75;5020184;28;20930;-54
2022/01/02 07:17:55;;;;;;;9.07;4.43;;;;;;;4.46;100.00;98979.97;5022655;28;20956;-56
2022/01/02 07:20:21;;;;;;;8.03;4.43;;;;;;;4.45;100.00;98986.06;5028698;28;20207;-54
2022/01/02 07:22:48;;;;;;;8.90;4.07;;;;;;;4.40;100.00;98988.97;5032120;28;20192;-54
2022/01/02 07:25:16;;;;;;;5.80;3.90;;;;;;;4.31;100.00;98997.34;5025271;28;20198;-57
2022/01/02 07:27:43;;;;;;;8.73;4.73;;;;;;;4.26;100.00;98997.63;5023493;28;20221;-53
2022/01/02 07:30:10;;;;;;;6.03;3.90;;;;;;;4.22;100.00;98996.19;5023618;28;20267;-55
2022/01/02 07:32:39;;;;;;;7.63;4.30;;;;;;;4.22;100.00;98983.28;5020013;28;20199;-55
2022/01/02 07:35:07;;;;;;;6.10;4.00;;;;;;;4.13;100.00;98989.03;5036424;22;20240;-56
2022/01/02 07:37:34;;;;;;;7.70;3.90;;;;;;;4.10;100.00;98982.31;5036938;28;20592;-53
2022/01/02 07:40:01;;;;;;;9.27;3.70;;;;;;;4.08;100.00;98980.78;5040872;28;20564;-55
2022/01/02 07:42:29;;;;;;;8.50;3.50;;;;;;;4.01;100.00;98979.50;5043759;28;20187;-54
2022/01/02 07:45:02;;;;;;;6.90;3.13;;;;;;;4.04;100.00;98980.13;5045964;28;20260;-56
2022/01/02 07:47:29;;;;;;;5.37;3.10;;;;;;;4.12;100.00;98988.19;5055453;28;20229;-57
2022/01/02 07:49:56;;;;;;;7.97;3.47;;;;;;;4.13;100.00;99002.78;5051172;28;20570;-55
2022/01/02 07:52:22;;;;;;;11.17;7.87;;;;;;;4.21;100.00;99006.63;5053699;28;20222;-57
2022/01/02 07:54:49;;;;;;;6.30;3.60;;;;;;;4.26;100.00;99004.56;5054869;28;20560;-55
2022/01/02 07:57:16;;;;;;;7.47;3.93;;;;;;;4.34;100.00;99006.63;5056090;28;20205;-56
2022/01/02 07:59:44;;;;;;;9.63;5.77;;;;;;;4.42;100.00;98994.03;5051943;28;20186;-58
2022/01/02 08:02:11;;;;;;;8.20;4.50;;;;;;;4.52;100.00;98996.84;5054483;28;20194;-56
2022/01/02 08:04:37;;;;;;;7.80;3.90;;;;;;;4.62;100.00;98991.84;5052008;28;20683;-56
2022/01/02 08:07:05;;;;;;;5.67;3.37;;;;;;;4.65;100.00;98997.66;5047931;28;20190;-57
2022/01/02 08:09:31;;;;;;;6.40;4.50;;;;;;;4.79;100.00;99001.06;5052360;28;20187;-56
2022/01/02 08:11:58;;;;;;;4.90;3.40;;;;;;;4.92;100.00;99012.22;5052491;28;20206;-56
2022/01/02 08:14:25;;;;;;;9.70;5.23;;;;;;;4.99;100.00;99005.69;5052480;28;20190;-55
2022/01/02 08:16:54;;;;;;;8.43;5.03;;;;;;;5.07;100.00;99004.34;5048009;28;20258;-56
2022/01/02 08:19:20;;;;;;;9.77;6.87;;;;;;;5.14;100.00;99011.59;5052219;28;20310;-56
2022/01/02 08:21:47;;;;;;;12.57;8.13;;;;;;;5.17;100.00;99015.69;5060335;28;20675;-54
2022/01/02 08:24:14;;;;;;;9.77;6.33;;;;;;;5.23;100.00;99035.16;5058474;28;20269;-52
2022/01/02 08:26:41;;;;;;;10.53;6.53;;;;;;;5.30;100.00;99016.50;5070966;28;20256;-57
2022/01/02 08:29:08;;;;;;;13.87;9.17;;;;;;;5.38;100.00;99010.78;5070853;28;20183;-57
2022/01/02 08:31:35;;;;;;;24.20;13.80;;;;;;;5.41;100.00;99010.56;5070286;28;20178;-57
2022/01/02 08:34:03;;;;;;;14.83;9.17;;;;;;;5.47;100.00;99007.53;5070982;28;20190;-56
2022/01/02 08:36:30;;;;;;;15.07;10.00;;;;;;;5.51;100.00;99007.31;5070502;28;20236;-56
2022/01/02 08:38:57;;;;;;;79.27;31.13;;;;;;;5.67;100.00;99007.06;5071026;28;20185;-57
2022/01/02 08:41:24;;;;;;;86.30;45.63;;;;;;;5.81;100.00;99003.47;5070091;28;20262;-57
2022/01/02 08:43:51;;;;;;;40.13;24.83;;;;;;;5.94;100.00;99009.44;5069528;28;20198;-56
2022/01/02 08:46:18;;;;;;;25.60;16.23;;;;;;;6.11;100.00;99008.22;5063639;28;20210;-55
2022/01/02 08:48:45;;;;;;;21.83;12.97;;;;;;;6.26;100.00;99010.63;5050850;28;20518;-57
2022/01/02 08:51:13;;;;;;;14.07;10.20;;;;;;;6.32;100.00;99011.00;5050047;28;20228;-56
2022/01/02 08:53:40;;;;;;;11.70;7.47;;;;;;;6.41;100.00;99017.25;5050753;28;20221;-56
2022/01/02 08:56:07;;;;;;;11.83;7.60;;;;;;;6.41;100.00;99014.66;5050539;28;20203;-56
2022/01/02 08:58:34;;;;;;;11.93;6.10;;;;;;;6.37;100.00;98999.44;5050596;28;20314;-56
2022/01/02 09:01:01;;;;;;;9.13;5.82;;;;;;;6.52;100.00;99008.66;5048509;28;20443;-56
2022/01/02 09:03:29;;;;;;;12.20;9.73;;;;;;;6.48;100.00;99015.03;5050552;28;20228;-57
2022/01/02 09:05:56;;;;;;;11.00;8.47;;;;;;;6.61;100.00;99007.16;5050437;28;20285;-57
2022/01/02 09:08:25;;;;;;;9.63;6.93;;;;;;;6.71;100.00;98996.91;5050485;28;20262;-55
2022/01/02 09:10:51;;;;;;;8.87;6.27;;;;;;;6.81;100.00;98978.88;5045824;28;20202;-57
2022/01/02 09:13:21;;;;;;;13.73;9.40;;;;;;;6.77;100.00;98983.47;5050214;28;20195;-58
2022/01/02 09:15:48;;;;;;;11.37;8.57;;;;;;;6.87;100.00;98986.19;5050343;28;20207;-55
2022/01/02 09:18:15;;;;;;;44.00;24.07;;;;;;;6.90;100.00;99011.88;5050359;28;20273;-56
2022/01/02 09:20:43;;;;;;;29.03;17.43;;;;;;;7.00;100.00;99012.00;5049774;28;20195;-55
2022/01/02 09:23:09;;;;;;;16.77;9.87;;;;;;;7.17;100.00;99024.53;5050087;28;20211;-55
2022/01/02 09:25:38;;;;;;;15.68;10.38;;;;;;;7.15;100.00;99030.75;5049801;28;20458;-56
2022/01/02 09:28:05;;;;;;;11.67;6.50;;;;;;;7.14;99.35;99032.53;5051041;28;20184;-58
2022/01/02 09:30:32;;;;;;;7.93;5.40;;;;;;;7.07;96.80;99024.38;5050266;28;20238;-57
2022/01/02 09:32:59;;;;;;;7.27;4.53;;;;;;;6.91;96.54;99011.78;5051080;28;20282;-57
2022/01/02 09:35:27;;;;;;;6.10;4.10;;;;;;;6.92;97.11;99010.84;5050535;28;20219;-57
2022/01/02 09:37:53;;;;;;;7.63;4.30;;;;;;;6.97;97.32;99015.66;5050248;28;20285;-57
2022/01/02 09:40:20;;;;;;;6.57;3.80;;;;;;;7.02;97.99;99026.50;5049562;28;20206;-57
2022/01/02 09:42:48;;;;;;;6.03;4.30;;;;;;;7.14;98.61;99047.28;5050324;28;20830;-57
2022/01/02 09:45:15;;;;;;;6.13;4.43;;;;;;;7.15;96.12;99059.31;5057774;28;20300;-57
2022/01/02 09:47:43;;;;;;;6.57;4.90;;;;;;;7.03;96.75;99058.50;5054611;28;20190;-57
2022/01/02 09:50:11;;;;;;;8.53;5.00;;;;;;;6.89;97.03;99050.00;5050072;28;20192;-57
2022/01/02 09:52:38;;;;;;;7.47;5.13;;;;;;;6.89;95.12;99041.41;5049395;28;20231;-58
2022/01/02 09:55:06;;;;;;;7.77;5.03;;;;;;;6.71;97.72;98999.50;5039867;28;20589;-57
2022/01/02 09:57:32;;;;;;;7.93;4.83;;;;;;;6.66;99.06;98963.53;5047300;28;20390;-58
2022/01/02 10:00:01;;;;;;;9.73;5.50;;;;;;;6.60;100.00;98944.06;5041934;28;20274;-55
2022/01/02 10:02:48;;;;;;;11.03;7.30;;;;;;;6.78;99.39;98953.97;5053135;28;20198;-58
2022/01/02 10:05:14;;;;;;;15.17;8.63;;;;;;;6.78;99.34;98957.41;5054582;28;20269;-56
2022/01/02 10:07:41;;;;;;;6.47;4.67;;;;;;;6.89;99.62;98953.97;5054351;28;20211;-57
2022/01/02 10:10:09;;;;;;;7.40;4.70;;;;;;;7.03;99.75;98949.47;5053705;28;20266;-55
2022/01/02 10:12:37;;;;;;;10.03;6.63;;;;;;;7.18;99.10;98969.06;5054214;28;20194;-57
2022/01/02 10:15:17;;;;;;;10.50;6.50;;;;;;;7.23;99.93;98960.88;5054217;28;20318;-57
2022/01/02 10:18:05;;;;;;;9.57;6.80;;;;;;;7.33;99.67;98987.78;5054254;28;20213;-55
2022/01/02 10:20:35;;;;;;;9.07;6.37;;;;;;;7.46;95.74;98982.44;5053442;28;20218;-57
2022/01/02 10:23:19;;;;;;;10.93;4.60;;;;;;;7.68;92.42;98978.13;5054167;28;20745;-57
2022/01/02 10:25:52;;;;;;;8.27;6.07;;;;;;;7.86;90.74;98995.78;5051605;28;20534;-57
2022/01/02 10:28:37;;;;;;;9.17;6.27;;;;;;;7.98;92.69;98999.97;5054167;28;20667;-57
2022/01/02 10:31:07;;;;;;;8.47;5.40;;;;;;;8.11;92.45;98982.44;5053179;28;20191;-55
2022/01/02 10:33:50;;;;;;;7.40;4.73;;;;;;;8.17;92.04;98988.91;5053943;28;20191;-56
2022/01/02 10:36:26;;;;;;;8.47;4.70;;;;;;;8.27;91.59;98994.19;5053710;28;20315;-57
2022/01/02 10:39:01;;;;;;;8.80;6.27;;;;;;;8.39;91.09;98980.16;5053519;28;20227;-57
2022/01/02 10:41:30;;;;;;;7.87;5.27;;;;;;;8.59;87.69;98984.66;5053109;28;20219;-56
2022/01/02 10:44:17;;;;;;;10.33;6.03;;;;;;;8.75;86.77;98978.97;5049680;28;20192;-55
2022/01/02 10:47:08;;;;;;;8.77;5.70;;;;;;;8.87;84.56;98977.94;5052355;28;20211;-57
2022/01/02 10:50:06;;;;;;;6.97;3.60;;;;;;;9.08;80.82;98957.03;5045281;28;20641;-55
2022/01/02 10:52:36;;;;;;;6.50;4.37;;;;;;;9.37;76.84;98947.66;5053535;28;20192;-56
2022/01/02 10:55:08;;;;;;;4.53;2.03;;;;;;;10.20;63.64;98944.56;5053402;28;20215;-55
2022/01/02 10:57:35;;;;;;;5.67;2.53;;;;;;;10.45;63.73;98963.22;5053436;28;20246;-56
2022/01/02 11:00:04;;;;;;;2.50;1.37;;;;;;;10.66;61.93;98973.47;5052772;28;20543;-57
2022/01/02 11:02:32;;;;;;;2.93;1.40;;;;;;;11.13;57.24;98996.06;5053369;28;20200;-57
2022/01/02 11:05:02;;;;;;;2.47;1.40;;;;;;;11.35;56.58;98965.28;5055859;28;20294;-57
2022/01/02 11:07:37;;;;;;;1.93;0.97;;;;;;;11.63;54.46;98973.09;5062129;28;20230;-56
2022/01/02 11:10:04;;;;;;;3.83;1.10;;;;;;;11.95;52.50;98976.97;5052508;28;20233;-57
2022/01/02 11:12:33;;;;;;;1.43;0.97;;;;;;;12.21;51.12;99004.97;5048241;28;20688;-55
2022/01/02 11:15:00;;;;;;;2.63;1.43;;;;;;;12.36;50.15;98986.94;5053048;28;20210;-57
2022/01/02 11:17:28;;;;;;;1.90;1.20;;;;;;;12.51;47.20;99000.28;5050950;28;20224;-56
2022/01/02 11:19:56;;;;;;;4.00;1.17;;;;;;;12.63;47.93;98985.16;5052233;28;20196;-56
2022/01/02 11:22:29;;;;;;;2.30;1.30;;;;;;;12.62;48.86;98983.50;5052973;28;20193;-56
2022/01/02 11:25:10;;;;;;;2.87;1.50;;;;;;;12.62;47.59;98967.81;5052895;28;20205;-57
2022/01/02 11:27:42;;;;;;;25.60;15.43;;;;;;;12.72;49.10;98958.00;5053479;28;20663;-57
2022/01/02 11:30:42;;;;;;;3.93;3.13;;;;;;;12.72;48.71;98937.06;5072013;28;20188;-57
2022/01/02 11:33:13;;;;;;;3.80;2.37;;;;;;;12.80;48.73;98933.66;4988613;28;20744;-57
2022/01/02 11:35:45;;;;;;;3.37;1.50;;;;;;;12.93;48.17;98915.69;4990238;28;20233;-57
2022/01/02 11:38:12;;;;;;;3.70;1.47;;;;;;;12.98;48.01;98908.19;5012858;28;20256;-57
2022/01/02 11:40:52;;;;;;;4.20;2.30;;;;;;;13.05;48.67;98904.94;5051488;28;20187;-57
2022/01/02 11:43:52;;;;;;;5.30;2.33;;;;;;;12.99;49.60;98916.84;5060513;28;20248;-57